Time;durP1;ratioP1;P1;durP2;ratioP2;P2;SDS_P1;SDS_P2;PMS_P1;PMS_P2;Temp;Humidity;BMP_temperature;BMP_pressure;BME280_temperature;BME280_humidity;BME280_pressure;Samples;Min_cycle;Max_cycle;Signal;HPM_P1;HPM_P2
2021/07/24 00:01:30;;;;;;;12.65;9.93;;;18.40;62.10;;;18.34;45.90;94846.50;5002132;28;20242;-82
2021/07/24 00:03:57;;;;;;;14.55;10.07;;;18.40;62.20;;;18.36;45.82;94851.59;5018481;28;20555;-82
2021/07/24 00:06:46;;;;;;;12.80;9.73;;;18.50;62.30;;;18.35;46.44;94848.13;5018554;28;20199;-82
2021/07/24 00:09:15;;;;;;;12.95;9.38;;;18.40;62.20;;;18.36;45.98;94843.63;5034420;28;20204;-82
2021/07/24 00:11:42;;;;;;;13.02;9.73;;;18.40;62.20;;;18.37;46.20;94848.69;5031496;28;20230;-81
2021/07/24 00:14:09;;;;;;;13.13;9.70;;;18.50;62.30;;;18.36;46.30;94844.44;5037951;28;20294;-81
2021/07/24 00:16:36;;;;;;;12.38;9.35;;;18.40;62.20;;;18.35;46.21;94839.38;5053439;28;20711;-82
2021/07/24 00:19:04;;;;;;;12.85;9.60;;;18.40;62.20;;;18.31;46.21;94839.03;5037664;28;20294;-82
2021/07/24 00:21:31;;;;;;;11.93;8.93;;;18.40;62.20;;;18.28;45.66;94834.19;5036960;28;20574;-82
2021/07/24 00:23:58;;;;;;;14.52;8.88;;;18.40;62.20;;;18.27;46.10;94832.59;5054155;28;20198;-82
2021/07/24 00:26:25;;;;;;;11.77;8.98;;;18.40;62.20;;;18.27;45.54;94829.13;5020552;28;20685;-82
2021/07/24 00:28:53;;;;;;;16.05;9.68;;;18.40;62.20;;;18.24;46.22;94825.13;5054029;28;20209;-82
2021/07/24 00:31:20;;;;;;;11.75;9.13;;;18.30;62.10;;;18.19;46.02;94822.41;5053683;28;20302;-81
2021/07/24 00:33:52;;;;;;;11.50;8.98;;;18.30;62.20;;;18.20;45.97;94823.97;5038451;28;20199;-82
2021/07/24 00:36:20;;;;;;;13.80;8.88;;;18.30;62.20;;;18.14;46.51;94817.81;5037606;28;20617;-81
2021/07/24 00:38:47;;;;;;;11.90;9.70;;;18.30;62.10;;;18.12;46.43;94819.09;5037107;28;20288;-81
2021/07/24 00:41:48;;;;;;;11.07;8.98;;;18.20;62.10;;;18.09;46.53;94817.72;5036843;28;20251;-82
2021/07/24 00:44:23;;;;;;;15.07;10.27;;;18.20;62.50;;;18.06;46.58;94818.19;5054117;28;20207;-82
2021/07/24 00:46:51;;;;;;;12.15;9.93;;;18.20;62.10;;;18.06;46.60;94818.19;5033824;28;20196;-82
2021/07/24 00:49:21;;;;;;;12.68;9.55;;;18.20;63.00;;;18.06;46.63;94811.03;5053859;28;20237;-81
2021/07/24 00:51:55;;;;;;;14.05;10.15;;;18.20;62.10;;;18.06;46.52;94800.41;5037926;28;20203;-82
2021/07/24 00:54:23;;;;;;;11.65;8.52;;;18.10;62.00;;;18.05;46.55;94800.66;5020745;28;20310;-82
2021/07/24 00:56:51;;;;;;;12.05;9.10;;;18.20;62.10;;;18.05;46.60;94800.66;5049479;28;20544;-82
2021/07/24 00:59:18;;;;;;;11.18;8.73;;;18.20;62.20;;;18.02;46.83;94806.47;5052533;28;20285;-81
2021/07/24 01:01:46;;;;;;;12.07;9.18;;;18.10;62.20;;;17.99;46.82;94807.75;5037215;28;20559;-82
2021/07/24 01:04:14;;;;;;;14.98;10.00;;;18.10;62.30;;;17.95;47.04;94793.34;5037294;28;20203;-81
2021/07/24 01:06:44;;;;;;;11.38;9.05;;;18.10;62.40;;;17.96;46.83;94794.97;5020252;28;20226;-81
2021/07/24 01:09:13;;;;;;;13.55;9.98;;;18.10;62.50;;;17.93;47.20;94793.56;5035650;28;20183;-82
2021/07/24 01:11:40;;;;;;;14.05;9.50;;;18.10;62.50;;;17.90;47.13;94799.34;5036650;28;20722;-81
2021/07/24 01:14:09;;;;;;;13.32;10.10;;;18.00;62.50;;;17.85;47.05;94793.16;5054485;28;20192;-81
2021/07/24 01:16:38;;;;;;;12.10;9.45;;;18.10;62.70;;;17.83;47.23;94793.38;5019457;28;20244;-81
2021/07/24 01:19:19;;;;;;;11.70;9.15;;;18.00;62.60;;;17.80;47.02;94796.53;5038498;28;20681;-82
2021/07/24 01:21:47;;;;;;;16.77;9.55;;;18.00;62.70;;;17.72;47.05;94792.44;5036460;28;20235;-82
2021/07/24 01:24:15;;;;;;;14.10;9.20;;;17.90;62.80;;;17.68;47.42;94790.50;5052613;28;20253;-81
2021/07/24 01:26:47;;;;;;;13.30;9.25;;;18.00;63.00;;;17.61;47.17;94790.63;5069367;28;20279;-81
2021/07/24 01:29:22;;;;;;;12.43;9.00;;;17.90;62.90;;;17.56;47.62;94794.00;5068535;28;20665;-80
2021/07/24 01:31:54;;;;;;;11.73;9.45;;;17.80;63.60;;;17.52;47.03;94800.03;5020212;28;20225;-81
2021/07/24 01:34:24;;;;;;;12.38;9.00;;;17.70;63.00;;;17.45;47.67;94794.84;5068870;28;20632;-82
2021/07/24 01:36:52;;;;;;;11.85;8.65;;;17.70;63.00;;;17.40;47.95;94798.22;5053428;28;20285;-81
2021/07/24 01:39:21;;;;;;;13.25;9.13;;;17.70;63.20;;;17.37;48.16;94793.41;5052403;28;20223;-82
2021/07/24 01:41:49;;;;;;;14.20;9.13;;;17.60;63.40;;;17.32;47.98;94787.19;5035712;28;20202;-82
2021/07/24 01:44:17;;;;;;;10.35;8.25;;;17.60;63.40;;;17.30;48.13;94795.38;5036304;28;20253;-82
2021/07/24 01:46:45;;;;;;;12.05;9.65;;;17.60;63.40;;;17.27;48.26;94801.16;5035442;28;20191;-81
2021/07/24 01:52:46;;;;;;;13.75;9.55;;;17.50;63.50;;;17.23;48.23;94784.91;5070564;28;20206;-81
2021/07/24 01:55:20;;;;;;;13.13;8.88;;;17.40;64.00;;;17.14;48.24;94786.34;5051686;28;20250;-80
2021/07/24 01:58:07;;;;;;;13.95;8.88;;;17.40;63.80;;;17.10;48.24;94790.50;5052566;28;20204;-81
2021/07/24 02:00:49;;;;;;;13.80;9.18;;;17.30;63.70;;;17.06;48.21;94790.16;5031012;28;20227;-81
2021/07/24 02:03:37;;;;;;;12.13;9.23;;;17.30;63.60;;;17.04;48.55;94786.13;5036752;28;20187;-80
2021/07/24 02:06:24;;;;;;;11.95;9.13;;;17.30;63.90;;;16.98;48.54;94779.13;5048343;28;20328;-80
2021/07/24 02:09:19;;;;;;;13.93;8.73;;;17.20;63.90;;;16.95;48.58;94781.22;5027072;28;20570;-80
2021/07/24 02:11:53;;;;;;;15.57;9.35;;;17.30;63.90;;;16.87;48.77;94773.63;5040269;28;20218;-81
2021/07/24 02:14:22;;;;;;;11.65;8.43;;;17.20;64.80;;;16.85;48.55;94775.69;5027728;28;20203;-81
2021/07/24 02:17:04;;;;;;;13.00;9.07;;;17.10;63.90;;;16.83;49.07;94776.97;5018906;28;20199;-81
2021/07/24 02:19:37;;;;;;;13.25;8.95;;;17.10;64.60;;;16.80;48.95;94772.94;5060691;28;20677;-80
2021/07/24 02:22:06;;;;;;;17.10;9.95;;;17.10;64.20;;;16.77;49.24;94774.22;5057143;28;20215;-81
2021/07/24 02:24:41;;;;;;;12.77;9.00;;;17.00;64.10;;;16.78;49.18;94777.66;5029392;28;20221;-79
2021/07/24 02:27:09;;;;;;;15.35;9.88;;;17.00;64.30;;;16.73;49.04;94772.25;5033269;28;20211;-82
2021/07/24 02:29:42;;;;;;;13.05;9.05;;;17.00;64.30;;;16.70;49.35;94770.06;5055398;28;20313;-82
2021/07/24 02:32:13;;;;;;;13.68;9.55;;;17.00;64.30;;;16.65;49.53;94766.28;5034111;28;20278;-82
2021/07/24 02:34:40;;;;;;;12.63;8.98;;;16.90;64.40;;;16.65;49.28;94768.94;5033037;28;20270;-81
2021/07/24 02:37:07;;;;;;;14.93;9.52;;;16.90;64.50;;;16.61;49.32;94766.97;5050462;28;20728;-83
2021/07/24 02:39:35;;;;;;;14.93;10.13;;;16.80;64.40;;;16.61;49.47;94764.34;5017680;28;20302;-81
2021/07/24 02:42:03;;;;;;;11.05;8.63;;;16.80;64.70;;;16.58;49.41;94765.59;5027586;28;20195;-81
2021/07/24 02:44:35;;;;;;;13.23;9.13;;;16.80;64.60;;;16.52;49.66;94757.81;5049297;28;20272;-81
2021/07/24 02:47:02;;;;;;;13.52;10.05;;;16.80;64.70;;;16.53;49.79;94762.03;5034457;28;20187;-80
2021/07/24 02:49:30;;;;;;;13.43;8.52;;;16.70;64.80;;;16.51;49.80;94762.28;5025001;28;20248;-81
2021/07/24 02:52:00;;;;;;;15.30;9.32;;;16.70;64.80;;;16.45;50.06;94756.09;5017472;28;20290;-81
2021/07/24 02:54:28;;;;;;;13.15;9.40;;;16.70;64.90;;;16.43;49.90;94747.56;5028161;28;20208;-81
2021/07/24 02:56:56;;;;;;;15.38;9.35;;;16.70;64.90;;;16.40;49.88;94747.22;5031423;28;20727;-81
2021/07/24 02:59:24;;;;;;;15.43;9.32;;;16.70;65.00;;;16.37;50.06;94740.56;5031427;28;20216;-81
2021/07/24 03:01:52;;;;;;;14.23;9.43;;;16.60;65.00;;;16.35;50.44;94747.13;5044638;28;20199;-81
2021/07/24 03:04:19;;;;;;;11.18;9.27;;;16.50;65.00;;;16.32;50.03;94748.41;5034252;28;20195;-81
2021/07/24 03:06:46;;;;;;;11.30;8.88;;;16.60;65.20;;;16.28;50.07;94749.88;5032240;28;20231;-82
2021/07/24 03:09:15;;;;;;;13.98;9.02;;;16.50;65.20;;;16.26;50.08;94744.81;5047511;28;20672;-81
2021/07/24 03:11:42;;;;;;;12.40;8.77;;;16.60;65.30;;;16.23;50.20;94747.13;5014716;28;20253;-82
2021/07/24 03:14:09;;;;;;;13.73;9.13;;;16.50;65.20;;;16.23;50.05;94752.41;5031547;28;20191;-82
2021/07/24 03:16:37;;;;;;;12.35;9.55;;;16.40;65.20;;;16.19;50.58;94752.06;5032410;28;20742;-82
2021/07/24 03:19:04;;;;;;;13.00;9.80;;;16.40;65.40;;;16.18;50.62;94753.09;5030708;28;20620;-81
2021/07/24 03:21:31;;;;;;;12.60;8.90;;;16.40;65.50;;;16.16;50.45;94752.53;5047550;28;20550;-82
2021/07/24 03:23:58;;;;;;;12.90;9.13;;;16.40;65.40;;;16.16;50.36;94755.16;5049064;28;20195;-82
2021/07/24 03:26:26;;;;;;;15.52;9.82;;;16.40;65.50;;;16.10;50.61;94745.50;5014898;28;20317;-82
2021/07/24 03:28:53;;;;;;;14.02;9.63;;;16.30;65.60;;;16.12;50.84;94746.09;5065343;28;20198;-81
2021/07/24 03:31:20;;;;;;;12.40;9.10;;;16.30;65.60;;;16.09;50.60;94747.34;5032193;28;20219;-81
2021/07/24 03:33:47;;;;;;;13.77;9.45;;;16.30;65.60;;;16.10;50.54;94748.16;5032509;28;20238;-81
2021/07/24 03:36:14;;;;;;;13.07;9.13;;;16.30;65.70;;;16.09;50.86;94757.16;5033961;28;20215;-81
2021/07/24 03:38:41;;;;;;;15.27;9.23;;;16.30;65.90;;;16.04;50.76;94744.59;5036552;28;20187;-81
2021/07/24 03:41:08;;;;;;;12.57;8.60;;;16.30;65.90;;;16.06;51.11;94749.66;5017792;28;20696;-81
2021/07/24 03:43:36;;;;;;;13.18;8.32;;;16.30;66.00;;;16.09;51.05;94757.16;5017877;28;20219;-81
2021/07/24 03:46:12;;;;;;;14.55;9.02;;;16.20;65.90;;;16.05;51.14;94746.22;5033993;28;20242;-81
2021/07/24 03:48:39;;;;;;;13.00;9.00;;;16.30;66.10;;;16.07;51.12;94749.41;5034539;28;20194;-81
2021/07/24 03:51:12;;;;;;;13.38;8.88;;;16.20;66.00;;;16.08;51.47;94755.53;5033931;28;20568;-81
2021/07/24 03:53:40;;;;;;;13.85;9.07;;;16.30;66.70;;;16.08;51.25;94758.19;5034185;28;20196;-81
2021/07/24 03:56:19;;;;;;;13.32;9.40;;;16.30;66.40;;;16.11;51.63;94761.16;5033909;28;20254;-81
2021/07/24 03:58:51;;;;;;;11.82;9.02;;;16.30;68.00;;;16.13;51.42;94768.88;5050644;28;20199;-82
2021/07/24 04:01:20;;;;;;;11.40;8.82;;;16.30;66.70;;;16.14;51.69;94768.63;5017371;28;20222;-80
2021/07/24 04:03:48;;;;;;;11.55;8.75;;;16.30;66.50;;;16.18;51.46;94771.63;5045087;28;20200;-81
2021/07/24 04:06:25;;;;;;;13.18;9.43;;;16.30;66.50;;;16.21;51.73;94775.66;5029542;28;20311;-82
2021/07/24 04:08:55;;;;;;;11.30;8.65;;;16.40;67.40;;;16.24;51.78;94778.63;5013253;28;20226;-83
2021/07/24 04:11:23;;;;;;;15.65;9.35;;;16.30;66.70;;;16.24;51.37;94770.69;5031132;28;20239;-82
2021/07/24 04:13:51;;;;;;;13.43;8.88;;;16.30;66.80;;;16.29;51.55;94773.44;5033343;28;20203;-83
2021/07/24 04:16:18;;;;;;;10.35;8.00;;;16.30;66.80;;;16.36;51.75;94767.25;5032019;28;20585;-81
2021/07/24 04:18:46;;;;;;;14.82;9.43;;;16.40;66.90;;;16.40;51.81;94773.69;5030405;28;20196;-83
2021/07/24 04:21:13;;;;;;;13.73;9.27;;;16.40;67.10;;;16.44;51.96;94780.13;5030865;28;20208;-81
2021/07/24 04:23:40;;;;;;;13.38;9.05;;;16.50;67.20;;;16.46;51.61;94778.06;5033706;28;20207;-82
2021/07/24 04:26:08;;;;;;;15.63;9.32;;;16.50;67.20;;;16.54;51.86;94788.31;5024594;28;20227;-82
2021/07/24 04:28:35;;;;;;;15.65;9.27;;;16.50;67.30;;;16.59;51.96;94788.41;5034247;28;20695;-82
2021/07/24 04:31:03;;;;;;;13.32;9.20;;;16.50;67.40;;;16.64;51.65;94785.84;5016274;28;20216;-82
2021/07/24 04:33:30;;;;;;;12.52;9.02;;;16.60;67.50;;;16.68;52.10;94777.47;5034282;28;20560;-83
2021/07/24 04:35:57;;;;;;;11.77;8.85;;;16.60;67.40;;;16.76;52.16;94785.03;5036920;28;20219;-82
2021/07/24 04:38:25;;;;;;;10.57;8.55;;;16.60;67.50;;;16.83;52.01;94788.34;5037580;28;20601;-82
2021/07/24 04:40:52;;;;;;;14.38;9.25;;;16.70;67.70;;;16.89;52.13;94786.63;5033719;28;20701;-82
2021/07/24 04:43:19;;;;;;;14.10;9.77;;;16.80;67.70;;;16.92;52.11;94779.03;5033737;28;20658;-79
2021/07/24 04:45:46;;;;;;;13.38;9.43;;;16.90;67.80;;;17.02;52.03;94777.63;5047856;28;20278;-82
2021/07/24 04:48:14;;;;;;;15.07;10.15;;;16.90;67.80;;;17.10;52.32;94785.19;5028990;28;20191;-82
2021/07/24 04:50:48;;;;;;;13.38;9.07;;;17.00;68.00;;;17.17;52.71;94785.06;5036580;28;20295;-82
2021/07/24 04:53:17;;;;;;;11.85;8.88;;;17.00;68.60;;;17.25;52.22;94784.69;5032848;28;20724;-81
2021/07/24 04:55:46;;;;;;;12.15;9.27;;;17.10;68.40;;;17.34;52.70;94793.06;5032344;28;20789;-82
2021/07/24 04:58:14;;;;;;;14.18;9.77;;;17.10;68.10;;;17.41;52.67;94788.44;5025802;28;20261;-82
2021/07/24 05:00:44;;;;;;;12.07;9.50;;;17.20;68.30;;;17.50;52.71;94787.00;5051558;28;20290;-83
2021/07/24 05:03:15;;;;;;;12.27;9.63;;;17.30;68.40;;;17.60;52.26;94797.78;5031372;28;20275;-81
2021/07/24 05:05:43;;;;;;;14.73;10.23;;;17.30;68.30;;;17.69;52.28;94795.53;5047564;28;20753;-82
2021/07/24 05:08:12;;;;;;;15.18;10.05;;;17.50;68.30;;;17.81;52.17;94792.00;5047067;28;20230;-82
2021/07/24 05:10:39;;;;;;;14.07;9.68;;;17.50;68.20;;;17.89;52.23;94795.09;5020920;28;20227;-82
2021/07/24 05:13:07;;;;;;;14.73;10.57;;;17.60;68.20;;;18.03;52.19;94789.50;5051446;28;20200;-82
2021/07/24 05:15:34;;;;;;;13.20;9.48;;;17.80;68.30;;;18.11;52.32;94783.78;5052628;28;20292;-82
2021/07/24 05:18:01;;;;;;;12.95;9.73;;;17.80;68.20;;;18.21;52.13;94781.28;5051956;28;20206;-82
2021/07/24 05:20:29;;;;;;;13.32;9.98;;;17.90;68.10;;;18.33;52.14;94783.03;5053122;28;20294;-83
2021/07/24 05:22:57;;;;;;;12.23;9.25;;;18.00;68.10;;;18.44;52.25;94786.63;5056104;28;20627;-84
2021/07/24 05:25:25;;;;;;;14.10;10.38;;;18.10;68.20;;;18.52;51.79;94776.41;5031249;28;20599;-82
2021/07/24 05:27:52;;;;;;;13.38;9.10;;;18.20;68.10;;;18.60;52.13;94771.72;5080926;28;20208;-83
2021/07/24 05:30:19;;;;;;;13.45;10.43;;;18.30;68.00;;;18.67;51.95;94773.13;5031298;28;20751;-81
2021/07/24 05:32:46;;;;;;;13.65;9.68;;;18.30;67.80;;;18.76;51.63;94773.53;5047699;28;20287;-83
2021/07/24 05:35:13;;;;;;;13.45;10.35;;;18.50;67.90;;;18.85;51.68;94761.41;5049427;28;20215;-82
2021/07/24 05:37:41;;;;;;;13.85;9.38;;;18.60;67.80;;;18.96;51.41;94769.53;5052315;28;20203;-83
2021/07/24 05:40:09;;;;;;;15.18;9.90;;;18.60;67.80;;;19.03;51.39;94772.81;5053125;28;20219;-84
2021/07/24 05:42:37;;;;;;;12.25;9.68;;;18.70;67.80;;;19.13;51.76;94777.44;5051724;28;20211;-83
2021/07/24 05:45:05;;;;;;;11.88;9.80;;;18.70;67.80;;;19.25;51.25;94771.97;5019859;28;20277;-81
2021/07/24 05:47:32;;;;;;;11.32;9.57;;;18.80;67.80;;;19.34;51.37;94770.47;5034535;28;20215;-84
2021/07/24 05:50:02;;;;;;;12.18;9.48;;;19.00;67.90;;;19.44;51.30;94765.25;5050019;28;20246;-83
2021/07/24 05:52:29;;;;;;;12.73;9.88;;;19.00;67.80;;;19.49;51.65;94752.03;5050215;28;20274;-82
2021/07/24 05:54:56;;;;;;;15.48;10.45;;;19.10;67.70;;;19.63;51.18;94759.59;5017449;28;20247;-82
2021/07/24 05:57:24;;;;;;;12.85;9.50;;;19.20;67.60;;;19.68;50.75;94741.81;5017534;28;20563;-82
2021/07/24 05:59:51;;;;;;;18.48;9.38;;;19.30;67.70;;;19.81;51.37;94745.09;5034140;28;20219;-81
2021/07/24 06:02:19;;;;;;;12.07;9.55;;;19.40;67.70;;;19.90;51.38;94740.16;5018656;28;20641;-81
2021/07/24 06:04:47;;;;;;;11.27;9.43;;;19.50;67.60;;;19.99;50.89;94744.75;5050787;28;20258;-81
2021/07/24 06:07:14;;;;;;;10.93;8.85;;;19.60;67.70;;;20.08;50.74;94749.56;5049631;28;20223;-82
2021/07/24 06:09:41;;;;;;;11.27;9.10;;;19.60;67.60;;;20.17;50.48;94745.41;5033557;28;20211;-82
2021/07/24 06:12:09;;;;;;;12.02;8.93;;;19.70;67.50;;;20.24;51.07;94737.19;5029756;28;20287;-79
2021/07/24 06:14:37;;;;;;;11.52;9.13;;;19.80;67.60;;;20.36;50.59;94742.31;5010911;28;20228;-82
2021/07/24 06:17:04;;;;;;;12.30;9.40;;;19.90;67.70;;;20.51;50.74;94749.56;5030631;28;20192;-82
2021/07/24 06:19:32;;;;;;;10.63;9.40;;;20.00;67.60;;;20.59;50.32;94741.91;5038299;28;20219;-81
2021/07/24 06:21:59;;;;;;;10.48;8.63;;;20.10;67.40;;;20.68;50.27;94742.22;5018214;28;20203;-81
2021/07/24 06:24:27;;;;;;;17.33;9.48;;;20.20;67.50;;;20.77;50.89;94738.00;5034651;28;20239;-81
2021/07/24 06:26:54;;;;;;;12.45;9.20;;;20.30;67.60;;;20.89;50.04;94737.00;5033149;28;20308;-81
2021/07/24 06:29:21;;;;;;;12.07;9.25;;;20.40;67.30;;;20.97;50.47;94738.34;5031634;28;20215;-78
2021/07/24 06:31:49;;;;;;;10.95;9.10;;;20.50;67.30;;;21.04;50.07;94736.25;5049544;28;20205;-79
2021/07/24 06:34:16;;;;;;;13.85;9.57;;;20.60;67.20;;;21.11;50.30;94726.94;5032990;28;20203;-79
2021/07/24 06:36:43;;;;;;;10.73;8.80;;;20.60;67.10;;;21.19;50.03;94725.63;5033038;28;20293;-82
2021/07/24 06:39:10;;;;;;;12.88;8.77;;;20.70;67.30;;;21.24;50.33;94719.50;5029591;28;20200;-81
2021/07/24 06:41:41;;;;;;;12.27;9.00;;;20.80;67.10;;;21.38;49.68;94727.78;5029903;28;20188;-81
2021/07/24 06:44:09;;;;;;;12.38;9.60;;;20.90;67.10;;;21.45;50.26;94733.69;5032800;28;20642;-82
2021/07/24 06:46:36;;;;;;;13.57;8.88;;;20.90;67.00;;;21.55;49.65;94740.91;5056866;28;20758;-82
2021/07/24 06:49:04;;;;;;;11.23;9.05;;;21.00;67.10;;;21.67;49.67;94738.00;5018047;28;20595;-80
2021/07/24 06:51:31;;;;;;;11.90;9.23;;;21.20;67.30;;;21.82;50.05;94740.66;5031588;28;20592;-81
2021/07/24 06:53:58;;;;;;;11.80;9.57;;;21.30;67.20;;;21.93;49.71;94744.13;5016788;28;20740;-80
2021/07/24 06:56:27;;;;;;;10.68;8.70;;;21.30;66.90;;;22.10;49.61;94735.84;5034176;28;20200;-81
2021/07/24 06:58:54;;;;;;;12.35;8.93;;;21.40;67.00;;;22.23;49.52;94737.97;5033617;28;20214;-82
2021/07/24 07:01:21;;;;;;;10.43;8.50;;;21.60;66.90;;;22.42;49.25;94741.97;5014335;28;20319;-80
2021/07/24 07:03:49;;;;;;;11.52;9.50;;;21.70;66.80;;;22.54;48.93;94740.63;5030178;28;20570;-80
2021/07/24 07:06:16;;;;;;;9.68;8.07;;;21.80;66.70;;;22.64;49.22;94733.63;5029230;28;20246;-79
2021/07/24 07:08:43;;;;;;;10.43;9.20;;;21.90;66.70;;;22.80;48.70;94735.19;5073724;28;20207;-82
2021/07/24 07:11:12;;;;;;;11.50;8.52;;;22.10;66.40;;;22.93;48.51;94738.34;5053068;28;20246;-83
2021/07/24 07:13:39;;;;;;;9.80;7.97;;;22.20;66.30;;;23.01;48.21;94729.75;5050547;28;20205;-79
2021/07/24 07:16:08;;;;;;;11.10;8.98;;;22.30;65.80;;;23.13;47.89;94737.44;5036123;28;21981;-79
2021/07/24 07:18:37;;;;;;;14.93;8.27;;;22.40;65.30;;;23.22;47.38;94726.97;5045692;28;20748;-80
2021/07/24 07:21:09;;;;;;;11.30;8.30;;;22.50;65.50;;;23.33;47.50;94725.84;5027431;28;20606;-80
2021/07/24 07:23:37;;;;;;;10.95;8.75;;;22.60;65.50;;;23.44;47.16;94721.25;5062379;28;20611;-80
2021/07/24 07:26:05;;;;;;;10.43;8.63;;;22.70;65.60;;;23.55;46.98;94725.44;5051589;28;20306;-81
2021/07/24 07:28:32;;;;;;;10.27;7.97;;;22.90;65.50;;;23.69;47.11;94728.28;5011110;28;20204;-80
2021/07/24 07:31:00;;;;;;;11.43;7.80;;;22.90;65.10;;;23.80;46.40;94731.66;5012105;28;20219;-81
2021/07/24 07:33:27;;;;;;;9.80;8.38;;;23.10;65.00;;;23.92;45.95;94728.63;5046711;28;20204;-81
2021/07/24 07:35:54;;;;;;;9.77;8.05;;;23.20;64.60;;;24.03;45.95;94727.50;5026624;28;20309;-79
2021/07/24 07:38:21;;;;;;;9.45;8.27;;;23.30;64.60;;;24.14;45.85;94723.66;5063452;28;20273;-81
2021/07/24 07:40:49;;;;;;;10.48;8.43;;;23.40;64.40;;;24.24;45.60;94716.59;5043854;28;20239;-81
2021/07/24 07:43:16;;;;;;;12.13;9.23;;;23.50;64.20;;;24.34;45.29;94715.69;5042496;28;20256;-80
2021/07/24 07:45:44;;;;;;;12.68;9.82;;;23.60;63.90;;;24.46;45.37;94722.28;5049157;28;20765;-80
2021/07/24 07:48:11;;;;;;;11.48;9.68;;;23.70;63.90;;;24.56;45.10;94716.00;5037855;28;20227;-82
2021/07/24 07:50:41;;;;;;;13.07;9.20;;;23.80;63.80;;;24.64;45.11;94717.25;5050817;28;20208;-81
2021/07/24 07:53:08;;;;;;;9.70;8.70;;;23.90;63.70;;;24.72;45.03;94699.75;5045050;28;20703;-81
2021/07/24 07:55:36;;;;;;;11.05;8.50;;;24.00;63.50;;;24.81;44.72;94708.75;5030202;28;20214;-81
2021/07/24 07:58:16;;;;;;;9.85;8.38;;;24.10;63.40;;;24.89;44.31;94708.13;5048701;28;20192;-83
2021/07/24 08:00:44;;;;;;;10.20;8.43;;;24.20;63.20;;;24.96;44.46;94707.75;5048796;28;20707;-82
2021/07/24 08:03:11;;;;;;;12.02;9.00;;;24.30;63.40;;;25.04;44.06;94704.44;5047847;28;20205;-81
2021/07/24 08:05:38;;;;;;;9.63;8.18;;;24.30;63.90;;;25.13;44.43;94691.16;5016606;28;20223;-81
2021/07/24 08:08:06;;;;;;;13.27;9.15;;;24.50;63.10;;;25.22;44.07;94700.19;5053796;28;20270;-82
2021/07/24 08:10:34;;;;;;;8.98;8.07;;;24.50;62.80;;;25.28;44.05;94681.31;5053502;28;20689;-81
2021/07/24 08:13:17;;;;;;;13.55;9.05;;;24.60;62.70;;;25.38;43.24;94686.56;5036668;28;20214;-80
2021/07/24 08:15:50;;;;;;;10.10;8.63;;;24.60;62.00;;;25.47;42.78;94698.22;5050973;28;20278;-80
2021/07/24 08:18:17;;;;;;;9.43;8.13;;;24.80;62.00;;;25.57;42.76;94700.78;5034082;28;20586;-79
2021/07/24 08:20:44;;;;;;;9.77;8.68;;;24.80;61.70;;;25.66;42.41;94697.41;5028083;28;20312;-81
2021/07/24 08:23:13;;;;;;;10.10;8.00;;;24.90;61.60;;;25.73;41.94;94695.97;5037001;28;20216;-82
2021/07/24 08:25:43;;;;;;;10.15;7.93;;;25.00;61.40;;;25.83;41.61;94697.69;5036493;28;20311;-81
2021/07/24 08:28:11;;;;;;;11.73;7.70;;;25.10;61.30;;;25.94;41.91;94705.56;5037731;28;20219;-82
2021/07/24 08:30:39;;;;;;;9.27;7.88;;;25.10;61.30;;;26.03;41.52;94707.28;5037683;28;20222;-82
2021/07/24 08:33:06;;;;;;;11.82;7.25;;;25.20;60.90;;;26.13;41.46;94716.28;5036523;28;20199;-82
2021/07/24 08:35:33;;;;;;;9.02;7.80;;;25.40;60.90;;;26.20;41.25;94714.81;5036823;28;20238;-82
2021/07/24 08:38:01;;;;;;;11.52;8.13;;;25.50;60.70;;;26.32;41.13;94708.97;5037514;28;20188;-81
2021/07/24 08:40:28;;;;;;;8.82;7.93;;;25.50;60.70;;;26.41;40.75;94709.06;5053809;28;20626;-82
2021/07/24 08:43:03;;;;;;;9.23;7.50;;;25.60;61.30;;;26.53;40.85;94712.06;5036853;28;20203;-82
2021/07/24 08:45:32;;;;;;;9.30;7.85;;;25.70;60.20;;;26.62;40.80;94709.50;5050338;28;20255;-82
2021/07/24 08:48:00;;;;;;;9.63;8.10;;;25.80;60.30;;;26.72;40.25;94716.56;5033966;28;20314;-82
2021/07/24 08:50:27;;;;;;;8.05;7.25;;;25.90;59.80;;;26.80;40.56;94705.09;5049236;28;20736;-82
2021/07/24 08:53:06;;;;;;;10.82;7.70;;;26.00;60.00;;;26.88;39.65;94703.63;5016622;28;20750;-82
2021/07/24 08:55:34;;;;;;;9.00;7.43;;;26.10;59.20;;;26.95;39.77;94697.81;5067371;28;20223;-82
2021/07/24 08:58:03;;;;;;;8.27;7.35;;;26.20;59.00;;;26.99;39.61;94696.94;5019837;28;20284;-82
2021/07/24 09:00:30;;;;;;;10.63;8.13;;;26.20;58.70;;;27.05;39.44;94699.50;5035642;28;20695;-81
2021/07/24 09:03:00;;;;;;;11.95;8.43;;;26.30;59.10;;;27.14;39.83;94695.00;5061381;28;20250;-82
2021/07/24 09:05:36;;;;;;;8.20;7.35;;;26.30;58.90;;;27.21;39.17;94684.63;5049257;28;20234;-82
2021/07/24 09:08:07;;;;;;;8.85;7.95;;;26.40;58.60;;;27.27;38.46;94683.41;5050042;28;20231;-82
2021/07/24 09:10:35;;;;;;;9.32;7.88;;;26.50;57.90;;;27.35;39.31;94683.78;5000826;28;20298;-82
2021/07/24 09:13:02;;;;;;;11.20;7.68;;;26.50;58.20;;;27.41;38.84;94694.16;5040399;28;20189;-82
2021/07/24 09:15:29;;;;;;;9.80;7.88;;;26.60;58.10;;;27.47;38.69;94689.47;5019866;28;20228;-83
2021/07/24 09:17:57;;;;;;;11.88;8.35;;;26.70;57.90;;;27.53;39.13;94680.16;5020688;28;20202;-82
2021/07/24 09:20:26;;;;;;;8.13;7.32;;;26.70;58.00;;;27.57;38.28;94675.75;5054555;28;20213;-83
2021/07/24 09:22:54;;;;;;;11.00;8.40;;;26.80;57.60;;;27.62;38.51;94677.53;5036168;28;20208;-82
2021/07/24 09:25:22;;;;;;;8.85;7.88;;;26.80;57.30;;;27.68;37.93;94675.50;5035876;28;20225;-82
2021/07/24 09:27:54;;;;;;;8.43;7.55;;;26.90;57.00;;;27.70;38.28;94676.78;5053166;28;20311;-82
2021/07/24 09:30:27;;;;;;;8.35;7.55;;;26.90;57.10;;;27.76;38.15;94670.16;5020245;28;20226;-83
2021/07/24 09:33:16;;;;;;;9.38;7.63;;;27.00;56.80;;;27.80;37.96;94673.84;5036006;28;20554;-82
2021/07/24 09:35:59;;;;;;;8.00;7.20;;;27.10;57.20;;;27.86;37.72;94671.81;5038664;28;20585;-83
2021/07/24 09:38:33;;;;;;;8.52;7.15;;;27.10;56.60;;;27.93;38.15;94688.34;5052960;28;20271;-82
2021/07/24 09:41:17;;;;;;;9.48;7.65;;;27.20;56.60;;;27.98;38.11;94690.13;5036553;28;20244;-82
2021/07/24 09:43:46;;;;;;;7.82;7.00;;;27.20;56.70;;;28.04;38.00;94698.88;5036562;28;20221;-82
2021/07/24 09:46:21;;;;;;;9.98;7.57;;;27.30;56.80;;;28.11;37.99;94696.56;5020006;28;20228;-82
2021/07/24 09:48:51;;;;;;;8.77;7.88;;;27.30;56.50;;;28.19;37.25;94703.13;5036204;28;20236;-83
2021/07/24 09:51:42;;;;;;;9.38;8.10;;;27.40;56.60;;;28.22;37.01;94697.91;5046472;28;20318;-82
2021/07/24 09:54:28;;;;;;;10.77;8.30;;;27.50;56.50;;;28.27;37.39;94695.06;5036086;28;20207;-82
2021/07/24 09:56:55;;;;;;;11.65;8.23;;;27.60;56.50;;;28.36;37.53;94694.31;5020000;28;20210;-82
2021/07/24 09:59:32;;;;;;;9.25;8.23;;;27.60;56.40;;;28.41;37.29;94696.88;5036059;28;20748;-81
2021/07/24 10:02:04;;;;;;;9.82;7.18;;;27.60;56.00;;;28.44;37.21;94688.16;5036171;28;20719;-83
2021/07/24 10:04:33;;;;;;;8.88;7.45;;;27.70;55.90;;;28.51;37.35;94699.28;5035907;28;20280;-83
2021/07/24 10:07:09;;;;;;;8.90;8.00;;;27.70;55.70;;;28.56;37.51;94688.38;5020221;28;20673;-82
2021/07/24 10:09:41;;;;;;;8.68;7.63;;;27.80;56.50;;;28.63;37.38;94681.72;5052612;28;20215;-82
2021/07/24 10:12:13;;;;;;;8.30;7.20;;;27.80;56.30;;;28.68;37.33;94668.91;5035782;28;20202;-82
2021/07/24 10:14:41;;;;;;;10.85;8.18;;;27.90;56.50;;;28.76;37.17;94661.94;5059385;28;20250;-82
2021/07/24 10:17:12;;;;;;;9.65;8.20;;;28.00;56.30;;;28.84;37.48;94663.06;5052236;28;20729;-83
2021/07/24 10:19:40;;;;;;;10.55;8.65;;;28.00;57.30;;;28.90;37.58;94664.50;5068347;28;20250;-82
2021/07/24 10:22:07;;;;;;;9.57;8.63;;;28.10;56.20;;;28.94;37.04;94662.75;5056395;28;20215;-82
2021/07/24 10:24:34;;;;;;;10.32;8.50;;;28.10;56.20;;;29.00;37.30;94658.81;5049315;28;20247;-82
2021/07/24 10:27:07;;;;;;;10.25;8.38;;;28.20;56.20;;;29.07;37.38;94652.94;5066767;28;20253;-82